createdAt,value
2023-04-08T00:01:57.539Z,100.00
2023-04-08T00:04:27.480Z,100.00
2023-04-08T00:06:57.939Z,100.00
2023-04-08T00:09:27.383Z,100.00
2023-04-08T00:11:58.024Z,100.00
2023-04-08T00:14:27.090Z,100.00
2023-04-08T00:16:58.087Z,100.00
2023-04-08T00:19:27.327Z,100.00
2023-04-08T00:21:56.520Z,100.00
2023-04-08T00:24:25.731Z,100.00
2023-04-08T00:26:54.927Z,100.00
2023-04-08T00:29:24.138Z,100.00
2023-04-08T00:31:53.617Z,100.00
2023-04-08T00:34:24.373Z,100.00
2023-04-08T00:36:53.463Z,100.00
2023-04-08T00:39:23.871Z,100.00
2023-04-08T00:41:53.257Z,100.00
2023-04-08T00:44:22.373Z,100.00
2023-04-08T00:46:51.518Z,100.00
2023-04-08T00:49:20.996Z,100.00
2023-04-08T00:51:51.651Z,100.00
2023-04-08T00:54:21.105Z,100.00
2023-04-08T00:56:50.310Z,100.00
2023-04-08T00:59:20.179Z,100.00
2023-04-08T01:01:56.450Z,100.00
2023-04-08T01:04:34.598Z,100.00
2023-04-08T01:07:14.500Z,100.00
2023-04-08T01:09:49.519Z,100.00
2023-04-08T01:12:23.800Z,100.00
2023-04-08T01:14:57.704Z,100.00
2023-04-08T01:17:27.030Z,100.00
2023-04-08T01:19:59.544Z,100.00
2023-04-08T01:22:38.849Z,100.00
2023-04-08T01:25:16.852Z,100.00
2023-04-08T01:27:49.610Z,100.00
2023-04-08T01:30:22.503Z,100.00
2023-04-08T01:32:53.887Z,100.00
2023-04-08T01:35:25.505Z,100.00
2023-04-08T01:37:56.427Z,100.00
2023-04-08T01:40:25.924Z,100.00
2023-04-08T01:42:58.382Z,100.00
2023-04-08T01:45:28.598Z,100.00
2023-04-08T01:48:01.451Z,100.00
2023-04-08T01:50:32.378Z,100.00
2023-04-08T01:53:02.372Z,100.00
2023-04-08T01:55:33.382Z,100.00
2023-04-08T01:58:07.129Z,100.00
2023-04-08T02:00:38.096Z,100.00
2023-04-08T02:03:08.571Z,100.00
2023-04-08T02:05:37.984Z,100.00
2023-04-08T02:08:07.331Z,100.00
2023-04-08T02:10:36.678Z,100.00
2023-04-08T02:13:09.122Z,100.00
2023-04-08T02:15:42.208Z,100.00
2023-04-08T02:18:17.277Z,100.00
2023-04-08T02:20:55.857Z,100.00
2023-04-08T02:23:29.466Z,100.00
2023-04-08T02:25:58.580Z,100.00
2023-04-08T02:28:33.623Z,100.00
2023-04-08T02:31:04.014Z,100.00
2023-04-08T02:33:35.549Z,100.00
2023-04-08T02:36:05.678Z,100.00
2023-04-08T02:38:34.676Z,100.00
2023-04-08T02:41:03.663Z,100.00
2023-04-08T02:43:34.029Z,100.00
2023-04-08T02:46:07.649Z,100.00
2023-04-08T02:48:38.923Z,100.00
2023-04-08T02:51:08.462Z,100.00
2023-04-08T02:53:37.536Z,100.00
2023-04-08T02:56:07.185Z,100.00
2023-04-08T02:58:37.719Z,100.00
2023-04-08T03:01:06.935Z,100.00
2023-04-08T03:03:36.780Z,100.00
2023-04-08T03:06:06.164Z,100.00
2023-04-08T03:08:35.537Z,100.00
2023-04-08T03:11:04.705Z,100.00
2023-04-08T03:13:34.336Z,100.00
2023-04-08T03:16:05.409Z,100.00
2023-04-08T03:18:34.974Z,100.00
2023-04-08T03:21:03.918Z,100.00
2023-04-08T03:23:33.013Z,100.00
2023-04-08T03:26:02.421Z,100.00
2023-04-08T03:28:31.274Z,100.00
2023-04-08T03:31:00.984Z,100.00
2023-04-08T03:33:31.828Z,100.00
2023-04-08T03:36:00.913Z,100.00
2023-04-08T03:38:29.824Z,100.00
2023-04-08T03:40:58.768Z,100.00
2023-04-08T03:43:27.797Z,100.00
2023-04-08T03:45:57.394Z,100.00
2023-04-08T03:48:26.912Z,100.00
2023-04-08T03:50:57.658Z,100.00
2023-04-08T03:53:28.156Z,100.00
2023-04-08T03:55:57.962Z,100.00
2023-04-08T03:58:27.162Z,100.00
2023-04-08T04:00:56.286Z,100.00
2023-04-08T04:03:25.434Z,100.00
2023-04-08T04:05:55.034Z,100.00
2023-04-08T04:08:34.910Z,100.00
2023-04-08T04:11:04.101Z,100.00
2023-04-08T04:13:33.371Z,100.00
2023-04-08T04:16:02.803Z,100.00
2023-04-08T04:18:32.220Z,100.00
2023-04-08T04:21:01.193Z,100.00
2023-04-08T04:23:30.089Z,100.00
2023-04-08T04:26:00.775Z,100.00
2023-04-08T04:28:29.988Z,100.00
2023-04-08T04:30:58.924Z,100.00
2023-04-08T04:33:27.919Z,100.00
2023-04-08T04:35:57.350Z,100.00
2023-04-08T04:38:27.201Z,100.00
2023-04-08T04:40:56.730Z,100.00
2023-04-08T04:43:27.458Z,100.00
2023-04-08T04:45:57.262Z,100.00
2023-04-08T04:48:26.479Z,100.00
2023-04-08T04:51:00.046Z,100.00
2023-04-08T04:53:28.965Z,100.00
2023-04-08T04:55:58.415Z,100.00
2023-04-08T04:58:29.314Z,100.00
2023-04-08T05:00:58.400Z,100.00
2023-04-08T05:03:27.514Z,100.00
2023-04-08T05:05:57.059Z,100.00
2023-04-08T05:08:27.812Z,100.00
2023-04-08T05:10:59.617Z,100.00
2023-04-08T05:13:30.171Z,100.00
2023-04-08T05:15:59.560Z,100.00
2023-04-08T05:18:28.893Z,100.00
2023-04-08T05:20:57.986Z,100.00
2023-04-08T05:23:27.638Z,100.00
2023-04-08T05:25:57.470Z,100.00
2023-04-08T05:28:26.863Z,100.00
2023-04-08T05:30:57.704Z,100.00
2023-04-08T05:33:27.654Z,100.00
2023-04-08T05:35:57.158Z,100.00
2023-04-08T05:38:26.516Z,100.00
2023-04-08T05:40:56.253Z,100.00
2023-04-08T05:43:27.469Z,100.00
2023-04-08T05:45:58.293Z,100.00
2023-04-08T05:48:27.545Z,100.00
2023-04-08T05:50:57.143Z,100.00
2023-04-08T05:53:26.451Z,100.00
2023-04-08T05:55:55.699Z,100.00
2023-04-08T05:58:25.000Z,100.00
2023-04-08T06:00:55.674Z,100.00
2023-04-08T06:03:26.614Z,100.00
2023-04-08T06:05:56.586Z,100.00
2023-04-08T06:08:26.705Z,100.00
2023-04-08T06:10:55.965Z,100.00
2023-04-08T06:13:26.129Z,100.00
2023-04-08T06:16:10.847Z,100.00
2023-04-08T06:18:43.504Z,100.00
2023-04-08T06:21:13.272Z,100.00
2023-04-08T06:23:42.277Z,100.00
2023-04-08T06:26:11.460Z,100.00
2023-04-08T06:28:40.952Z,100.00
2023-04-08T06:31:10.356Z,100.00
2023-04-08T06:33:39.469Z,100.00
2023-04-08T06:36:10.520Z,100.00
2023-04-08T06:38:39.882Z,100.00
2023-04-08T06:41:09.986Z,100.00
2023-04-08T06:43:39.606Z,100.00
2023-04-08T06:46:08.781Z,100.00
2023-04-08T06:48:38.645Z,100.00
2023-04-08T06:51:09.088Z,100.00
2023-04-08T06:53:38.288Z,100.00
2023-04-08T06:56:08.402Z,100.00
2023-04-08T06:58:42.979Z,100.00
2023-04-08T07:01:12.478Z,100.00
2023-04-08T07:03:42.151Z,100.00
2023-04-08T07:06:12.929Z,100.00
2023-04-08T07:08:42.488Z,100.00
2023-04-08T07:11:12.421Z,100.00
2023-04-08T07:13:42.223Z,100.00
2023-04-08T07:16:13.797Z,100.00
2023-04-08T07:18:44.108Z,100.00
2023-04-08T07:21:15.944Z,100.00
2023-04-08T07:23:45.477Z,100.00
2023-04-08T07:26:15.144Z,100.00
2023-04-08T07:28:44.356Z,100.00
2023-04-08T07:31:18.758Z,100.00
2023-04-08T07:33:48.170Z,100.00
2023-04-08T07:36:18.934Z,100.00
2023-04-08T07:38:48.280Z,100.00
2023-04-08T07:41:18.006Z,100.00
2023-04-08T07:43:47.349Z,100.00
2023-04-08T07:46:16.893Z,100.00
2023-04-08T07:48:46.159Z,100.00
2023-04-08T07:51:15.281Z,100.00
2023-04-08T07:53:45.867Z,100.00
2023-04-08T07:56:16.242Z,100.00
2023-04-08T07:58:46.043Z,100.00
2023-04-08T08:01:20.148Z,100.00
2023-04-08T08:03:50.219Z,100.00
2023-04-08T08:06:19.582Z,100.00
2023-04-08T08:08:50.540Z,100.00
2023-04-08T08:11:19.849Z,100.00
2023-04-08T08:13:49.053Z,100.00
2023-04-08T08:16:19.336Z,100.00
2023-04-08T08:18:48.406Z,100.00
2023-04-08T08:21:17.685Z,100.00
2023-04-08T08:23:47.272Z,100.00
2023-04-08T08:26:21.425Z,100.00
2023-04-08T08:28:50.837Z,100.00
2023-04-08T08:31:20.848Z,100.00
2023-04-08T08:33:52.817Z,100.00
2023-04-08T08:36:25.073Z,100.00
2023-04-08T08:38:54.395Z,100.00
2023-04-08T08:41:27.746Z,100.00
2023-04-08T08:43:58.500Z,100.00
2023-04-08T08:46:28.043Z,100.00
2023-04-08T08:48:59.303Z,100.00
2023-04-08T08:51:29.855Z,100.00
2023-04-08T08:53:59.231Z,100.00
2023-04-08T08:56:30.432Z,100.00
2023-04-08T08:58:59.791Z,100.00
2023-04-08T09:01:37.772Z,100.00
2023-04-08T09:04:18.898Z,100.00
2023-04-08T09:06:52.770Z,100.00
2023-04-08T09:09:32.663Z,100.00
2023-04-08T09:12:06.412Z,100.00
2023-04-08T09:14:35.932Z,100.00
2023-04-08T09:17:07.521Z,100.00
2023-04-08T09:19:36.799Z,98.63
2023-04-08T09:22:08.003Z,96.24
2023-04-08T09:24:40.865Z,94.85
2023-04-08T09:27:19.694Z,97.38
2023-04-08T09:30:23.726Z,98.56
2023-04-08T09:32:54.456Z,91.65
2023-04-08T09:35:24.796Z,85.13
2023-04-08T09:37:58.712Z,82.08
2023-04-08T09:40:29.794Z,84.40
2023-04-08T09:43:04.436Z,88.75
2023-04-08T09:45:37.740Z,82.41
2023-04-08T09:48:15.841Z,84.36
2023-04-08T09:50:50.872Z,84.23
2023-04-08T09:53:26.550Z,86.62
2023-04-08T09:56:05.816Z,92.16
2023-04-08T09:58:49.125Z,84.34
2023-04-08T10:01:26.479Z,75.18
2023-04-08T10:03:58.481Z,80.30
2023-04-08T10:06:31.659Z,81.55
2023-04-08T10:09:04.650Z,77.36
2023-04-08T10:11:33.874Z,79.42
2023-04-08T10:14:04.859Z,85.43
2023-04-08T10:16:38.947Z,96.77
2023-04-08T10:19:53.909Z,98.94
2023-04-08T10:22:49.577Z,100.00
2023-04-08T10:25:31.162Z,100.00
2023-04-08T10:28:06.215Z,97.46
2023-04-08T10:30:48.716Z,98.74
2023-04-08T10:33:21.048Z,100.00
2023-04-08T10:35:51.676Z,99.24
2023-04-08T10:38:21.689Z,97.35
2023-04-08T10:40:55.243Z,97.01
2023-04-08T10:43:27.830Z,99.49
2023-04-08T10:45:58.782Z,100.00
2023-04-08T10:48:29.202Z,100.00
2023-04-08T10:50:59.628Z,100.00
2023-04-08T10:53:29.292Z,96.74
2023-04-08T10:56:07.201Z,85.83
2023-04-08T10:58:37.681Z,84.19
2023-04-08T11:01:08.921Z,74.06
2023-04-08T11:03:40.803Z,74.42
2023-04-08T11:06:10.111Z,68.83
2023-04-08T11:08:39.784Z,64.85
2023-04-08T11:11:11.150Z,58.02
2023-04-08T11:13:51.158Z,53.39
2023-04-08T11:16:24.600Z,49.58
2023-04-08T11:18:54.785Z,44.77
2023-04-08T11:21:25.875Z,47.32
2023-04-08T11:23:55.181Z,50.39
2023-04-08T11:26:26.606Z,44.44
2023-04-08T11:28:58.500Z,36.43
2023-04-08T11:31:29.704Z,46.05
2023-04-08T11:33:59.043Z,43.35
2023-04-08T11:36:31.540Z,38.17
2023-04-08T11:39:01.185Z,32.58
2023-04-08T11:41:39.067Z,32.92
2023-04-08T11:44:08.721Z,30.66
2023-04-08T11:46:41.015Z,30.19
2023-04-08T11:49:10.393Z,29.26
2023-04-08T11:51:57.802Z,29.06
2023-04-08T11:54:30.668Z,28.04
2023-04-08T11:57:01.022Z,30.96
2023-04-08T11:59:30.316Z,29.64
2023-04-08T12:02:02.135Z,26.88
2023-04-08T12:04:32.511Z,27.54
2023-04-08T12:07:06.711Z,26.75
2023-04-08T12:09:36.281Z,27.15
2023-04-08T12:12:14.720Z,26.86
2023-04-08T12:14:44.209Z,28.18
2023-04-08T12:17:16.776Z,29.63
2023-04-08T12:19:46.155Z,34.67
2023-04-08T12:22:16.464Z,37.18
2023-04-08T12:24:45.644Z,36.09
2023-04-08T12:27:15.542Z,32.73
2023-04-08T12:29:46.187Z,32.23
2023-04-08T12:32:17.278Z,27.71
2023-04-08T12:34:46.658Z,25.88
2023-04-08T12:37:16.622Z,24.15
2023-04-08T12:39:46.442Z,23.77
2023-04-08T12:42:16.985Z,24.25
2023-04-08T12:44:49.847Z,25.76
2023-04-08T12:47:25.560Z,25.08
2023-04-08T12:49:58.657Z,32.97
2023-04-08T12:52:29.105Z,27.53
2023-04-08T12:54:58.415Z,23.86
2023-04-08T12:57:28.696Z,23.82
2023-04-08T12:59:58.248Z,30.67
2023-04-08T13:02:29.092Z,37.54
2023-04-08T13:04:58.490Z,39.25
2023-04-08T13:07:30.861Z,41.41
2023-04-08T13:10:02.033Z,42.30
2023-04-08T13:12:36.681Z,43.29
2023-04-08T13:15:11.404Z,44.75
2023-04-08T13:17:43.970Z,44.80
2023-04-08T13:20:14.161Z,46.36
2023-04-08T13:22:45.093Z,47.47
2023-04-08T13:25:14.858Z,47.36
2023-04-08T13:27:45.781Z,48.32
2023-04-08T13:30:15.152Z,48.36
2023-04-08T13:32:46.163Z,49.99
2023-04-08T13:35:21.227Z,57.19
2023-04-08T13:37:55.094Z,72.29
2023-04-08T13:40:25.460Z,87.36
2023-04-08T13:42:57.855Z,100.00
2023-04-08T13:45:27.644Z,100.00
2023-04-08T13:47:59.938Z,100.00
2023-04-08T13:50:29.114Z,100.00
2023-04-08T13:52:58.812Z,100.00
2023-04-08T13:55:29.802Z,100.00
2023-04-08T13:57:59.606Z,100.00
2023-04-08T14:00:28.823Z,100.00
2023-04-08T14:03:01.180Z,100.00
2023-04-08T14:05:30.218Z,100.00
2023-04-08T14:08:01.029Z,100.00
2023-04-08T14:10:31.099Z,100.00
2023-04-08T14:13:00.573Z,100.00
2023-04-08T14:15:36.825Z,100.00
2023-04-08T14:18:10.120Z,100.00
2023-04-08T14:20:42.983Z,100.00
2023-04-08T14:23:15.567Z,100.00
2023-04-08T14:25:49.376Z,100.00
2023-04-08T14:28:18.795Z,100.00
2023-04-08T14:30:49.016Z,100.00
2023-04-08T14:33:24.572Z,100.00
2023-04-08T14:35:54.644Z,100.00
2023-04-08T14:38:37.392Z,100.00
2023-04-08T14:41:09.688Z,100.00
2023-04-08T14:43:38.873Z,100.00
2023-04-08T14:46:08.348Z,100.00
2023-04-08T14:48:42.058Z,100.00
2023-04-08T14:51:11.542Z,100.00
2023-04-08T14:53:41.339Z,100.00
2023-04-08T14:56:11.065Z,100.00
2023-04-08T14:58:40.475Z,100.00
2023-04-08T15:01:11.753Z,100.00
2023-04-08T15:03:42.751Z,100.00
2023-04-08T15:06:24.198Z,100.00
2023-04-08T15:08:53.694Z,100.00
2023-04-08T15:11:23.945Z,100.00
2023-04-08T15:13:53.249Z,100.00
2023-04-08T15:16:22.730Z,100.00
2023-04-08T15:18:53.567Z,100.00
2023-04-08T15:21:25.348Z,100.00
2023-04-08T15:23:54.711Z,100.00
2023-04-08T15:26:24.478Z,100.00
2023-04-08T15:28:57.448Z,100.00
2023-04-08T15:31:27.375Z,100.00
2023-04-08T15:33:58.617Z,100.00
2023-04-08T15:36:27.961Z,100.00
2023-04-08T15:38:57.350Z,100.00
2023-04-08T15:41:26.528Z,100.00
2023-04-08T15:43:56.297Z,100.00
2023-04-08T15:46:26.092Z,100.00
2023-04-08T15:48:56.828Z,100.00
2023-04-08T15:51:30.830Z,100.00
2023-04-08T15:54:01.505Z,100.00
2023-04-08T15:56:33.975Z,100.00
2023-04-08T15:59:03.379Z,100.00
2023-04-08T16:01:33.398Z,100.00
2023-04-08T16:04:02.946Z,100.00
2023-04-08T16:06:35.493Z,100.00
2023-04-08T16:09:04.831Z,100.00
2023-04-08T16:11:36.148Z,100.00
2023-04-08T16:14:05.984Z,100.00
2023-04-08T16:16:40.012Z,100.00
2023-04-08T16:19:11.914Z,100.00
2023-04-08T16:21:46.937Z,100.00
2023-04-08T16:24:16.715Z,100.00
2023-04-08T16:26:58.198Z,100.00
2023-04-08T16:29:27.859Z,100.00
2023-04-08T16:31:57.613Z,100.00
2023-04-08T16:34:27.103Z,100.00
2023-04-08T16:36:58.088Z,100.00
2023-04-08T16:39:27.467Z,100.00
2023-04-08T16:41:56.973Z,100.00
2023-04-08T16:44:26.205Z,100.00
2023-04-08T16:46:55.204Z,100.00
2023-04-08T16:49:24.396Z,100.00
2023-04-08T16:51:53.387Z,100.00
2023-04-08T16:54:24.254Z,100.00
2023-04-08T16:56:53.944Z,100.00
2023-04-08T16:59:23.426Z,100.00
2023-04-08T17:01:52.667Z,100.00
2023-04-08T17:04:21.902Z,100.00
2023-04-08T17:06:52.313Z,100.00
2023-04-08T17:09:22.122Z,100.00
2023-04-08T17:11:52.604Z,100.00
2023-04-08T17:14:21.815Z,100.00
2023-04-08T17:16:50.935Z,100.00
2023-04-08T17:19:20.617Z,100.00
2023-04-08T17:21:53.092Z,100.00
2023-04-08T17:24:22.503Z,100.00
2023-04-08T17:26:52.787Z,100.00
2023-04-08T17:29:22.280Z,100.00
2023-04-08T17:31:51.545Z,100.00
2023-04-08T17:34:21.068Z,100.00
2023-04-08T17:36:51.366Z,100.00
2023-04-08T17:39:21.030Z,100.00
2023-04-08T17:41:50.102Z,100.00
2023-04-08T17:44:21.253Z,100.00
2023-04-08T17:46:50.364Z,100.00
2023-04-08T17:49:20.424Z,100.00
2023-04-08T17:51:49.866Z,100.00
2023-04-08T17:54:19.169Z,100.00
2023-04-08T17:56:51.834Z,100.00
2023-04-08T17:59:22.632Z,100.00
2023-04-08T18:01:52.245Z,100.00
2023-04-08T18:04:22.142Z,100.00
2023-04-08T18:06:53.605Z,100.00
2023-04-08T18:09:22.957Z,100.00
2023-04-08T18:11:52.634Z,100.00
2023-04-08T18:14:23.522Z,100.00
2023-04-08T18:16:53.093Z,100.00
2023-04-08T18:19:24.714Z,100.00
2023-04-08T18:21:55.285Z,100.00
2023-04-08T18:24:24.881Z,100.00
2023-04-08T18:27:03.555Z,100.00
2023-04-08T18:29:35.715Z,100.00
2023-04-08T18:32:05.164Z,100.00
2023-04-08T18:34:35.460Z,100.00
2023-04-08T18:37:04.835Z,100.00
2023-04-08T18:39:34.104Z,100.00
2023-04-08T18:42:04.178Z,100.00
2023-04-08T18:44:35.072Z,100.00
2023-04-08T18:47:04.846Z,100.00
2023-04-08T18:49:34.667Z,100.00
2023-04-08T18:52:04.047Z,100.00
2023-04-08T18:54:33.244Z,100.00
2023-04-08T18:57:02.896Z,100.00
2023-04-08T18:59:32.434Z,100.00
2023-04-08T19:02:03.108Z,100.00
2023-04-08T19:04:33.537Z,100.00
2023-04-08T19:07:03.930Z,100.00
2023-04-08T19:09:33.881Z,100.00
2023-04-08T19:12:03.634Z,100.00
2023-04-08T19:14:33.331Z,100.00
2023-04-08T19:17:03.942Z,100.00
2023-04-08T19:19:33.633Z,100.00
2023-04-08T19:22:06.217Z,100.00
2023-04-08T19:24:35.781Z,100.00
2023-04-08T19:27:05.808Z,100.00
2023-04-08T19:29:35.208Z,100.00
2023-04-08T19:32:06.298Z,100.00
2023-04-08T19:34:40.886Z,100.00
2023-04-08T19:37:10.743Z,100.00
2023-04-08T19:39:40.315Z,100.00
2023-04-08T19:42:11.096Z,100.00
2023-04-08T19:44:41.703Z,100.00
2023-04-08T19:47:12.383Z,100.00
2023-04-08T19:49:41.306Z,100.00
2023-04-08T19:52:12.035Z,100.00
2023-04-08T19:54:43.651Z,100.00
2023-04-08T19:57:13.045Z,100.00
2023-04-08T19:59:44.511Z,100.00
2023-04-08T20:02:15.646Z,100.00
2023-04-08T20:04:46.459Z,100.00
2023-04-08T20:07:15.605Z,100.00
2023-04-08T20:09:44.842Z,100.00
2023-04-08T20:12:14.142Z,100.00
2023-04-08T20:14:45.084Z,100.00
2023-04-08T20:17:18.026Z,100.00
2023-04-08T20:19:47.376Z,100.00
2023-04-08T20:22:16.656Z,100.00
2023-04-08T20:24:45.864Z,100.00
2023-04-08T20:27:15.267Z,100.00
2023-04-08T20:29:44.840Z,100.00
2023-04-08T20:32:23.063Z,100.00
2023-04-08T20:34:52.575Z,100.00
2023-04-08T20:37:21.678Z,100.00
2023-04-08T20:39:51.182Z,100.00
2023-04-08T20:42:21.118Z,100.00
2023-04-08T20:44:50.162Z,100.00
2023-04-08T20:47:21.073Z,100.00
2023-04-08T20:49:50.430Z,100.00
2023-04-08T20:52:19.637Z,100.00
2023-04-08T20:54:48.967Z,100.00
2023-04-08T20:57:19.549Z,100.00
2023-04-08T20:59:49.016Z,100.00
2023-04-08T21:02:21.052Z,100.00
2023-04-08T21:04:51.798Z,100.00
2023-04-08T21:07:20.988Z,100.00
2023-04-08T21:09:50.361Z,100.00
2023-04-08T21:12:19.763Z,100.00
2023-04-08T21:14:51.998Z,100.00
2023-04-08T21:17:21.636Z,100.00
2023-04-08T21:19:52.110Z,100.00
2023-04-08T21:22:21.637Z,100.00
2023-04-08T21:24:53.940Z,100.00
2023-04-08T21:27:23.106Z,100.00
2023-04-08T21:29:56.773Z,100.00
2023-04-08T21:32:29.510Z,100.00
2023-04-08T21:35:00.730Z,100.00
2023-04-08T21:37:29.979Z,100.00
2023-04-08T21:39:59.460Z,100.00
2023-04-08T21:42:29.136Z,100.00
2023-04-08T21:44:58.314Z,100.00
2023-04-08T21:47:27.755Z,100.00
2023-04-08T21:49:57.277Z,100.00
2023-04-08T21:52:27.703Z,100.00
2023-04-08T21:54:57.120Z,100.00
2023-04-08T21:57:27.117Z,100.00
2023-04-08T21:59:56.630Z,100.00
2023-04-08T22:02:26.113Z,100.00
2023-04-08T22:04:55.331Z,100.00
2023-04-08T22:07:24.843Z,100.00
2023-04-08T22:09:57.698Z,100.00
2023-04-08T22:12:26.938Z,100.00
2023-04-08T22:14:55.932Z,100.00
2023-04-08T22:17:25.086Z,100.00
2023-04-08T22:19:54.137Z,100.00
2023-04-08T22:22:23.258Z,100.00
2023-04-08T22:24:52.603Z,100.00
2023-04-08T22:27:22.992Z,100.00
2023-04-08T22:29:52.475Z,100.00
2023-04-08T22:32:21.479Z,100.00
2023-04-08T22:34:50.767Z,100.00
2023-04-08T22:37:19.776Z,100.00
2023-04-08T22:39:49.018Z,100.00
2023-04-08T22:42:18.475Z,100.00
2023-04-08T22:44:49.092Z,100.00
2023-04-08T22:47:18.305Z,100.00
2023-04-08T22:49:47.473Z,100.00
2023-04-08T22:52:20.537Z,100.00
2023-04-08T22:54:50.052Z,100.00
2023-04-08T22:57:19.173Z,100.00
2023-04-08T22:59:49.583Z,100.00
2023-04-08T23:02:18.900Z,100.00
2023-04-08T23:04:48.714Z,100.00
2023-04-08T23:07:17.886Z,100.00
2023-04-08T23:09:47.244Z,100.00
2023-04-08T23:12:16.463Z,100.00
2023-04-08T23:14:45.767Z,100.00
2023-04-08T23:17:18.065Z,100.00
2023-04-08T23:19:50.227Z,100.00
2023-04-08T23:22:20.470Z,100.00
2023-04-08T23:24:49.512Z,100.00
2023-04-08T23:27:18.449Z,100.00
2023-04-08T23:29:47.557Z,100.00
2023-04-08T23:32:18.113Z,100.00
2023-04-08T23:34:47.289Z,100.00
2023-04-08T23:37:16.527Z,100.00
2023-04-08T23:39:45.426Z,100.00
2023-04-08T23:42:14.702Z,100.00
2023-04-08T23:44:44.113Z,100.00
2023-04-08T23:47:15.834Z,100.00
2023-04-08T23:49:46.139Z,100.00
2023-04-08T23:52:15.089Z,100.00
2023-04-08T23:54:44.225Z,100.00
2023-04-08T23:57:13.512Z,100.00
2023-04-08T23:59:45.587Z,100.00
